createdAt,value
2019-01-14T00:00:16.425Z,6.28
2019-01-14T00:02:46.752Z,6.37
2019-01-14T00:05:15.408Z,6.39
2019-01-14T00:07:43.949Z,6.40
2019-01-14T00:10:12.832Z,6.36
2019-01-14T00:12:41.361Z,6.39
2019-01-14T00:15:10.149Z,6.34
2019-01-14T00:17:38.743Z,6.32
2019-01-14T00:20:10.145Z,6.30
2019-01-14T00:22:38.732Z,6.23
2019-01-14T00:25:07.361Z,6.26
2019-01-14T00:27:35.858Z,6.24
2019-01-14T00:30:07.480Z,6.31
2019-01-14T00:32:36.133Z,6.36
2019-01-14T00:35:05.695Z,6.29
2019-01-14T00:37:34.225Z,6.29
2019-01-14T00:40:02.845Z,6.26
2019-01-14T00:42:31.456Z,6.22
2019-01-14T00:44:59.990Z,6.15
2019-01-14T00:47:28.504Z,6.06
2019-01-14T00:49:56.986Z,5.96
2019-01-14T00:52:25.478Z,6.00
2019-01-14T00:54:54.008Z,5.97
2019-01-14T00:57:22.488Z,5.91
2019-01-14T00:59:51.063Z,5.97
2019-01-14T01:02:19.582Z,5.95
2019-01-14T01:04:48.243Z,5.97
2019-01-14T01:07:17.098Z,6.01
2019-01-14T01:09:45.584Z,6.00
2019-01-14T01:12:14.688Z,5.98
2019-01-14T01:14:43.177Z,6.00
2019-01-14T01:17:11.673Z,5.96
2019-01-14T01:19:40.198Z,5.93
2019-01-14T01:22:08.742Z,5.90
2019-01-14T01:24:37.215Z,5.87
2019-01-14T01:27:05.769Z,5.84
2019-01-14T01:29:34.594Z,5.86
2019-01-14T01:32:03.228Z,5.80
2019-01-14T01:34:31.742Z,5.78
2019-01-14T01:37:00.379Z,5.80
2019-01-14T01:39:28.913Z,5.83
2019-01-14T01:41:57.699Z,5.78
2019-01-14T01:44:26.175Z,5.79
2019-01-14T01:46:54.656Z,5.73
2019-01-14T01:49:23.260Z,5.75
2019-01-14T01:51:51.774Z,5.76
2019-01-14T01:54:20.236Z,5.69
2019-01-14T01:56:48.777Z,5.68
2019-01-14T01:59:17.566Z,5.71
2019-01-14T02:01:46.031Z,5.68
2019-01-14T02:04:14.755Z,5.62
2019-01-14T02:06:43.233Z,5.68
2019-01-14T02:09:11.766Z,5.67
2019-01-14T02:11:40.256Z,5.66
2019-01-14T02:14:09.242Z,5.65
2019-01-14T02:16:37.994Z,5.57
2019-01-14T02:19:06.558Z,5.60
2019-01-14T02:21:35.236Z,5.55
2019-01-14T02:24:03.804Z,5.59
2019-01-14T02:26:32.265Z,5.57
2019-01-14T02:29:00.959Z,5.60
2019-01-14T02:31:29.487Z,5.57
2019-01-14T02:33:58.105Z,5.60
2019-01-14T02:36:26.675Z,5.58
2019-01-14T02:38:55.230Z,5.61
2019-01-14T02:41:23.780Z,5.52
2019-01-14T02:43:52.307Z,5.52
2019-01-14T02:46:20.909Z,5.53
2019-01-14T02:48:49.380Z,5.54
2019-01-14T02:51:17.933Z,5.54
2019-01-14T02:53:46.570Z,5.51
2019-01-14T02:56:15.171Z,5.50
2019-01-14T02:58:43.842Z,5.50
2019-01-14T03:01:12.461Z,5.56
2019-01-14T03:03:40.958Z,5.54
2019-01-14T03:06:09.564Z,5.55
2019-01-14T03:08:38.015Z,5.53
2019-01-14T03:11:06.586Z,5.57
2019-01-14T03:13:35.103Z,5.58
2019-01-14T03:16:03.898Z,5.60
2019-01-14T03:18:32.364Z,5.62
2019-01-14T03:21:00.938Z,5.54
2019-01-14T03:23:29.450Z,5.46
2019-01-14T03:25:58.564Z,5.41
2019-01-14T03:28:27.056Z,5.40
2019-01-14T03:30:55.566Z,5.38
2019-01-14T03:33:24.154Z,5.33
2019-01-14T03:35:53.055Z,5.29
2019-01-14T03:38:21.584Z,5.37
2019-01-14T03:40:50.044Z,5.36
2019-01-14T03:43:18.626Z,5.36
2019-01-14T03:45:47.279Z,5.40
2019-01-14T03:48:15.831Z,5.31
2019-01-14T03:50:44.360Z,5.24
2019-01-14T03:53:13.258Z,5.30
2019-01-14T03:55:42.043Z,5.25
2019-01-14T03:58:10.586Z,5.26
2019-01-14T04:00:39.223Z,5.21
2019-01-14T04:03:08.855Z,5.18
2019-01-14T04:05:37.791Z,5.23
2019-01-14T04:08:06.329Z,5.16
2019-01-14T04:10:34.927Z,5.17
2019-01-14T04:13:03.633Z,5.14
2019-01-14T04:15:32.136Z,5.10
2019-01-14T04:18:00.662Z,5.07
2019-01-14T04:20:29.237Z,5.02
2019-01-14T04:22:57.749Z,4.99
2019-01-14T04:25:26.269Z,5.01
2019-01-14T04:27:54.757Z,4.96
2019-01-14T04:30:24.066Z,4.84
2019-01-14T04:32:52.680Z,4.77
2019-01-14T04:35:21.458Z,4.72
2019-01-14T04:37:50.278Z,4.61
2019-01-14T04:40:18.922Z,4.57
2019-01-14T04:42:47.439Z,4.48
2019-01-14T04:45:16.594Z,4.49
2019-01-14T04:47:45.233Z,4.44
2019-01-14T04:50:18.534Z,4.36
2019-01-14T04:52:47.181Z,4.34
2019-01-14T04:55:15.709Z,4.25
2019-01-14T04:57:44.155Z,4.24
2019-01-14T05:00:15.835Z,4.20
2019-01-14T05:02:44.718Z,4.25
2019-01-14T05:05:13.238Z,4.25
2019-01-14T05:07:41.815Z,3.99
2019-01-14T05:10:13.458Z,4.03
2019-01-14T05:12:42.273Z,4.02
2019-01-14T05:15:12.329Z,4.04
2019-01-14T05:17:40.807Z,3.98
2019-01-14T05:20:12.421Z,4.03
2019-01-14T05:22:41.083Z,4.13
2019-01-14T05:25:09.722Z,4.12
2019-01-14T05:27:38.374Z,4.17
2019-01-14T05:30:09.938Z,4.12
2019-01-14T05:32:38.569Z,4.06
2019-01-14T05:35:07.957Z,4.01
2019-01-14T05:37:37.715Z,4.04
2019-01-14T05:40:12.315Z,4.06
2019-01-14T05:42:40.972Z,4.11
2019-01-14T05:45:09.960Z,4.14
2019-01-14T05:47:38.517Z,4.12
2019-01-14T05:50:09.864Z,4.13
2019-01-14T05:52:38.784Z,4.17
2019-01-14T05:55:08.871Z,4.17
2019-01-14T05:57:37.490Z,4.18
2019-01-14T06:00:11.856Z,4.13
2019-01-14T06:02:40.334Z,4.09
2019-01-14T06:05:08.811Z,4.05
2019-01-14T06:07:44.690Z,4.04
2019-01-14T06:10:09.124Z,4.01
2019-01-14T06:12:37.717Z,4.03
2019-01-14T06:15:12.232Z,3.99
2019-01-14T06:17:40.770Z,3.90
2019-01-14T06:20:12.535Z,3.89
2019-01-14T06:22:41.070Z,3.84
2019-01-14T06:25:12.103Z,3.85
2019-01-14T06:27:40.767Z,3.75
2019-01-14T06:30:17.207Z,3.76
2019-01-14T06:32:45.765Z,3.76
2019-01-14T06:35:14.485Z,3.69
2019-01-14T06:37:42.997Z,3.73
2019-01-14T06:40:14.426Z,3.74
2019-01-14T06:42:43.063Z,3.72
2019-01-14T06:45:11.764Z,3.67
2019-01-14T06:47:40.338Z,3.70
2019-01-14T06:50:17.168Z,3.76
2019-01-14T06:52:45.819Z,3.67
2019-01-14T06:55:14.880Z,3.77
2019-01-14T06:57:43.511Z,3.80
2019-01-14T07:00:17.566Z,3.76
2019-01-14T07:02:46.276Z,3.50
2019-01-14T07:05:15.322Z,3.09
2019-01-14T07:07:44.149Z,2.92
2019-01-14T07:10:15.720Z,2.83
2019-01-14T07:12:44.481Z,2.87
2019-01-14T07:15:13.413Z,2.88
2019-01-14T07:17:42.059Z,2.92
2019-01-14T07:20:12.000Z,2.88
2019-01-14T07:22:40.616Z,2.93
2019-01-14T07:25:14.060Z,3.00
2019-01-14T07:27:42.682Z,3.01
2019-01-14T07:30:14.257Z,3.07
2019-01-14T07:32:42.847Z,3.11
2019-01-14T07:35:11.493Z,3.11
2019-01-14T07:37:40.095Z,3.06
2019-01-14T07:40:11.887Z,3.09
2019-01-14T07:42:40.460Z,3.11
2019-01-14T07:45:11.505Z,3.12
2019-01-14T07:47:40.294Z,3.18
2019-01-14T07:50:14.065Z,3.19
2019-01-14T07:52:43.086Z,3.25
2019-01-14T07:55:12.018Z,3.24
2019-01-14T07:57:40.550Z,3.26
2019-01-14T08:00:17.942Z,3.26
2019-01-14T08:02:46.495Z,3.31
2019-01-14T08:05:15.075Z,3.30
2019-01-14T08:07:43.719Z,3.33
2019-01-14T08:10:12.351Z,3.29
2019-01-14T08:12:40.991Z,3.33
2019-01-14T08:15:15.085Z,3.26
2019-01-14T08:17:57.392Z,3.37
2019-01-14T08:20:24.523Z,3.35
2019-01-14T08:22:53.099Z,3.41
2019-01-14T08:25:21.567Z,3.42
2019-01-14T08:27:50.084Z,3.50
2019-01-14T08:30:25.863Z,3.53
2019-01-14T08:32:54.340Z,3.53
2019-01-14T08:35:23.102Z,3.55
2019-01-14T08:37:57.602Z,3.58
2019-01-14T08:40:26.051Z,3.57
2019-01-14T08:42:54.750Z,3.61
2019-01-14T08:45:23.280Z,3.59
2019-01-14T08:47:51.826Z,3.53
2019-01-14T08:50:20.691Z,3.43
2019-01-14T08:52:49.306Z,3.43
2019-01-14T08:55:18.115Z,3.46
2019-01-14T08:57:46.688Z,3.44
2019-01-14T09:00:19.596Z,3.40
2019-01-14T09:02:48.190Z,3.35
2019-01-14T09:05:17.081Z,3.36
2019-01-14T09:07:45.623Z,3.29
2019-01-14T09:10:17.737Z,3.35
2019-01-14T09:12:46.262Z,3.21
2019-01-14T09:15:16.882Z,3.25
2019-01-14T09:17:45.561Z,3.25
2019-01-14T09:20:16.391Z,3.25
2019-01-14T09:22:44.929Z,3.23
2019-01-14T09:25:13.595Z,3.21
2019-01-14T09:27:42.126Z,3.23
2019-01-14T09:30:15.879Z,3.26
2019-01-14T09:32:44.409Z,3.28
2019-01-14T09:35:13.012Z,3.32
2019-01-14T09:37:41.761Z,3.28
2019-01-14T09:40:20.840Z,3.34
2019-01-14T09:42:49.371Z,3.35
2019-01-14T09:45:18.071Z,3.37
2019-01-14T09:47:46.658Z,3.39
2019-01-14T09:50:16.220Z,3.43
2019-01-14T09:52:45.082Z,3.42
2019-01-14T09:55:15.560Z,3.45
2019-01-14T09:57:44.164Z,3.46
2019-01-14T10:00:12.916Z,3.48
2019-01-14T10:02:41.626Z,3.50
2019-01-14T10:05:12.624Z,3.45
2019-01-14T10:07:41.434Z,3.47
2019-01-14T10:10:13.104Z,3.48
2019-01-14T10:12:41.667Z,3.52
2019-01-14T10:15:12.905Z,3.52
2019-01-14T10:17:41.404Z,3.64
2019-01-14T10:20:11.213Z,3.71
2019-01-14T10:22:40.094Z,3.71
2019-01-14T10:25:09.511Z,3.63
2019-01-14T10:27:38.209Z,3.72
2019-01-14T10:30:09.785Z,3.73
2019-01-14T10:32:38.225Z,3.77
2019-01-14T10:35:08.294Z,3.81
2019-01-14T10:37:36.881Z,3.98
2019-01-14T10:40:13.915Z,4.09
2019-01-14T10:42:42.587Z,4.05
2019-01-14T10:45:16.930Z,3.98
2019-01-14T10:47:45.435Z,3.89
2019-01-14T10:50:14.276Z,3.82
2019-01-14T10:52:43.103Z,3.86
2019-01-14T10:55:12.379Z,3.81
2019-01-14T10:57:41.227Z,3.87
2019-01-14T11:00:28.437Z,3.82
2019-01-14T11:02:57.316Z,3.85
2019-01-14T11:05:28.300Z,3.93
2019-01-14T11:07:57.083Z,4.02
2019-01-14T11:10:25.748Z,4.03
2019-01-14T11:12:54.270Z,4.10
2019-01-14T11:15:22.994Z,4.09
2019-01-14T11:17:51.639Z,4.24
2019-01-14T11:20:25.853Z,4.30
2019-01-14T11:22:54.427Z,4.32
2019-01-14T11:25:22.958Z,4.24
2019-01-14T11:27:51.499Z,4.22
2019-01-14T11:30:29.786Z,4.24
2019-01-14T11:32:58.400Z,4.31
2019-01-14T11:35:27.193Z,4.30
2019-01-14T11:37:55.715Z,4.35
2019-01-14T11:40:30.066Z,4.50
2019-01-14T11:42:58.531Z,4.66
2019-01-14T11:45:27.009Z,4.78
2019-01-14T11:47:55.597Z,4.75
2019-01-14T11:50:24.169Z,4.74
2019-01-14T11:52:52.682Z,4.54
2019-01-14T11:55:21.314Z,4.39
2019-01-14T11:57:49.963Z,4.34
2019-01-14T12:00:23.439Z,4.31
2019-01-14T12:02:52.263Z,4.13
2019-01-14T12:05:20.771Z,4.11
2019-01-14T12:07:49.343Z,4.05
2019-01-14T12:10:17.981Z,4.06
2019-01-14T12:12:46.588Z,4.01
2019-01-14T12:15:23.581Z,4.02
2019-01-14T12:17:52.125Z,3.95
2019-01-14T12:20:20.740Z,4.00
2019-01-14T12:22:49.362Z,4.03
2019-01-14T12:25:18.130Z,4.10
2019-01-14T12:27:46.748Z,4.14
2019-01-14T12:30:21.304Z,4.13
2019-01-14T12:32:49.835Z,4.23
2019-01-14T12:35:18.366Z,4.16
2019-01-14T12:37:46.945Z,4.15
2019-01-14T12:40:15.476Z,4.19
2019-01-14T12:42:44.071Z,4.13
2019-01-14T12:45:17.151Z,4.08
2019-01-14T12:47:45.785Z,4.02
2019-01-14T12:50:16.637Z,4.13
2019-01-14T12:52:45.099Z,4.11
2019-01-14T12:55:18.120Z,4.04
2019-01-14T12:57:46.762Z,4.09
2019-01-14T13:00:20.489Z,4.11
2019-01-14T13:02:49.151Z,4.09
2019-01-14T13:05:18.996Z,4.07
2019-01-14T13:07:47.443Z,4.12
2019-01-14T13:10:15.953Z,4.11
2019-01-14T13:12:44.565Z,3.98
2019-01-14T13:15:18.809Z,3.85
2019-01-14T13:17:47.491Z,3.78
2019-01-14T13:20:17.692Z,3.65
2019-01-14T13:22:46.250Z,3.60
2019-01-14T13:25:15.181Z,3.58
2019-01-14T13:27:43.843Z,3.55
2019-01-14T13:30:17.982Z,3.47
2019-01-14T13:32:46.608Z,3.45
2019-01-14T13:35:15.346Z,3.41
2019-01-14T13:37:44.447Z,3.37
2019-01-14T13:40:13.561Z,3.43
2019-01-14T13:42:42.251Z,3.46
2019-01-14T13:45:16.217Z,3.43
2019-01-14T13:47:45.225Z,3.56
2019-01-14T13:50:16.259Z,3.64
2019-01-14T13:52:45.177Z,3.74
2019-01-14T13:55:14.116Z,3.74
2019-01-14T13:57:42.857Z,3.65
2019-01-14T14:00:14.379Z,3.60
2019-01-14T14:02:43.113Z,3.57
2019-01-14T14:05:12.039Z,3.48
2019-01-14T14:07:41.122Z,3.45
2019-01-14T14:10:15.900Z,3.45
2019-01-14T14:12:45.667Z,3.38
2019-01-14T14:15:16.221Z,3.32
2019-01-14T14:17:45.083Z,3.36
2019-01-14T14:20:16.279Z,3.37
2019-01-14T14:22:45.310Z,3.35
2019-01-14T14:25:14.163Z,3.15
2019-01-14T14:27:43.236Z,3.10
2019-01-14T14:30:20.546Z,2.97
2019-01-14T14:32:49.158Z,2.99
2019-01-14T14:35:17.754Z,2.94
2019-01-14T14:37:46.437Z,2.94
2019-01-14T14:40:15.225Z,2.94
2019-01-14T14:42:43.785Z,2.99
2019-01-14T14:45:13.256Z,2.97
2019-01-14T14:47:41.801Z,2.98
2019-01-14T14:50:16.122Z,2.96
2019-01-14T14:52:44.807Z,2.95
2019-01-14T14:55:13.587Z,2.92
2019-01-14T14:57:42.453Z,2.96
2019-01-14T15:00:14.097Z,3.01
2019-01-14T15:02:42.574Z,2.95
2019-01-14T15:05:12.229Z,2.96
2019-01-14T15:07:40.804Z,2.94
2019-01-14T15:10:22.213Z,2.93
2019-01-14T15:12:51.271Z,2.87
2019-01-14T15:15:23.351Z,2.89
2019-01-14T15:17:51.967Z,2.86
2019-01-14T15:20:22.206Z,2.85
2019-01-14T15:22:50.718Z,2.79
2019-01-14T15:25:19.379Z,2.73
2019-01-14T15:27:48.608Z,2.64
2019-01-14T15:30:25.952Z,2.64
2019-01-14T15:32:54.911Z,2.63
2019-01-14T15:35:23.705Z,2.59
2019-01-14T15:37:52.230Z,2.58
2019-01-14T15:40:21.450Z,2.65
2019-01-14T15:42:50.101Z,2.63
2019-01-14T15:45:20.526Z,2.58
2019-01-14T15:47:49.615Z,2.55
2019-01-14T15:50:18.276Z,2.54
2019-01-14T15:52:46.794Z,2.53
2019-01-14T15:55:18.155Z,2.47
2019-01-14T15:57:46.616Z,2.44
2019-01-14T16:00:19.322Z,2.39
2019-01-14T16:02:47.956Z,2.38
2019-01-14T16:05:17.913Z,2.37
2019-01-14T16:07:46.586Z,2.39
2019-01-14T16:10:17.451Z,2.30
2019-01-14T16:12:46.022Z,2.31
2019-01-14T16:15:14.952Z,2.27
2019-01-14T16:17:43.661Z,2.25
2019-01-14T16:20:14.409Z,2.25
2019-01-14T16:22:43.081Z,2.27
2019-01-14T16:25:11.685Z,2.24
2019-01-14T16:27:40.270Z,2.25
2019-01-14T16:30:14.427Z,2.24
2019-01-14T16:32:43.092Z,2.25
2019-01-14T16:35:11.607Z,2.23
2019-01-14T16:37:40.150Z,2.14
2019-01-14T16:40:08.900Z,2.08
2019-01-14T16:42:37.426Z,2.10
2019-01-14T16:45:09.600Z,2.14
2019-01-14T16:47:38.219Z,2.10
2019-01-14T16:50:10.241Z,2.08
2019-01-14T16:52:38.907Z,2.10
2019-01-14T16:55:08.638Z,2.06
2019-01-14T16:57:37.275Z,1.96
2019-01-14T17:00:09.381Z,2.01
2019-01-14T17:02:37.894Z,1.98
2019-01-14T17:05:07.225Z,2.03
2019-01-14T17:07:35.749Z,1.95
2019-01-14T17:10:06.863Z,1.84
2019-01-14T17:12:35.336Z,1.87
2019-01-14T17:15:04.729Z,1.89
2019-01-14T17:17:33.353Z,1.88
2019-01-14T17:20:01.940Z,1.86
2019-01-14T17:22:30.311Z,1.86
2019-01-14T17:24:58.899Z,1.87
2019-01-14T17:27:30.721Z,1.90
2019-01-14T17:29:59.278Z,1.75
2019-01-14T17:32:27.811Z,1.69
2019-01-14T17:34:56.345Z,1.66
2019-01-14T17:37:24.803Z,1.72
2019-01-14T17:39:53.332Z,1.60
2019-01-14T17:42:22.352Z,1.60
2019-01-14T17:44:50.977Z,1.66
2019-01-14T17:47:19.675Z,1.67
2019-01-14T17:49:48.280Z,1.69
2019-01-14T17:52:16.797Z,1.64
2019-01-14T17:54:45.435Z,1.68
2019-01-14T17:57:14.024Z,1.75
2019-01-14T17:59:42.979Z,1.61
2019-01-14T18:02:11.416Z,1.60
2019-01-14T18:04:40.117Z,1.68
2019-01-14T18:07:08.855Z,1.71
2019-01-14T18:09:37.377Z,1.56
2019-01-14T18:12:05.984Z,1.61
2019-01-14T18:14:34.603Z,1.69
2019-01-14T18:17:03.638Z,1.55
2019-01-14T18:19:32.388Z,1.62
2019-01-14T18:22:00.959Z,1.61
2019-01-14T18:24:29.982Z,1.60
2019-01-14T18:26:58.550Z,1.57
2019-01-14T18:29:27.005Z,1.50
2019-01-14T18:31:55.512Z,1.53
2019-01-14T18:34:24.180Z,1.56
2019-01-14T18:36:54.963Z,1.58
2019-01-14T18:39:23.783Z,1.55
2019-01-14T18:41:52.370Z,1.56
2019-01-14T18:44:20.922Z,1.52
2019-01-14T18:46:49.551Z,1.59
2019-01-14T18:49:18.141Z,1.54
2019-01-14T18:51:46.733Z,1.52
2019-01-14T18:54:15.373Z,1.58
2019-01-14T18:56:44.093Z,1.60
2019-01-14T18:59:12.607Z,1.51
2019-01-14T19:01:41.143Z,1.62
2019-01-14T19:04:09.800Z,1.52
2019-01-14T19:06:38.430Z,1.50
2019-01-14T19:09:08.825Z,1.58
2019-01-14T19:11:37.521Z,1.55
2019-01-14T19:14:06.984Z,1.63
2019-01-14T19:16:38.902Z,1.51
2019-01-14T19:19:07.448Z,1.61
2019-01-14T19:21:36.204Z,1.64
2019-01-14T19:24:04.853Z,1.56
2019-01-14T19:26:33.457Z,1.56
2019-01-14T19:29:02.038Z,1.53
2019-01-14T19:31:30.613Z,1.66
2019-01-14T19:34:04.249Z,1.61
2019-01-14T19:36:33.282Z,1.63
2019-01-14T19:39:02.066Z,1.70
2019-01-14T19:41:30.825Z,1.73
2019-01-14T19:43:59.713Z,1.75
2019-01-14T19:46:30.454Z,1.70
2019-01-14T19:48:59.171Z,1.66
2019-01-14T19:51:27.743Z,1.62
2019-01-14T19:53:56.186Z,1.62
2019-01-14T19:56:24.857Z,1.60
2019-01-14T19:58:53.874Z,1.49
2019-01-14T20:01:23.048Z,1.56
2019-01-14T20:03:59.194Z,1.67
2019-01-14T20:06:33.792Z,1.64
2019-01-14T20:09:04.643Z,1.63
2019-01-14T20:11:34.553Z,1.61
2019-01-14T20:14:43.954Z,1.63
2019-01-14T20:17:12.691Z,1.71
2019-01-14T20:19:42.719Z,1.74
2019-01-14T20:22:11.265Z,1.76
2019-01-14T20:24:39.802Z,1.77
2019-01-14T20:27:08.479Z,1.77
2019-01-14T20:29:36.971Z,1.75
2019-01-14T20:32:06.281Z,1.75
2019-01-14T20:34:34.946Z,1.76
2019-01-14T20:37:03.575Z,1.72
2019-01-14T20:39:32.051Z,1.68
2019-01-14T20:42:00.564Z,1.72
2019-01-14T20:44:29.221Z,1.66
2019-01-14T20:46:57.795Z,1.51
2019-01-14T20:49:26.746Z,1.64
2019-01-14T20:51:55.342Z,1.43
2019-01-14T20:54:24.154Z,1.47
2019-01-14T20:56:52.784Z,1.44
2019-01-14T20:59:21.403Z,1.42
2019-01-14T21:01:49.941Z,1.31
2019-01-14T21:04:18.628Z,1.33
2019-01-14T21:06:47.349Z,1.35
2019-01-14T21:09:15.892Z,1.22
2019-01-14T21:11:44.440Z,1.18
2019-01-14T21:14:13.054Z,1.16
2019-01-14T21:16:41.685Z,1.11
2019-01-14T21:19:10.242Z,1.11
2019-01-14T21:21:38.870Z,1.07
2019-01-14T21:24:07.452Z,1.09
2019-01-14T21:26:35.933Z,1.15
2019-01-14T21:29:04.530Z,1.07
2019-01-14T21:31:33.340Z,1.16
2019-01-14T21:34:02.332Z,1.06
2019-01-14T21:36:31.564Z,1.10
2019-01-14T21:39:00.266Z,1.21
2019-01-14T21:41:31.486Z,1.21
2019-01-14T21:43:59.629Z,1.29
2019-01-14T21:46:28.335Z,1.27
2019-01-14T21:48:56.931Z,1.09
2019-01-14T21:51:25.632Z,1.03
2019-01-14T21:53:55.267Z,0.96
2019-01-14T21:56:23.880Z,1.08
2019-01-14T21:58:52.437Z,1.16
2019-01-14T22:01:21.276Z,1.19
2019-01-14T22:03:49.819Z,1.22
2019-01-14T22:06:19.973Z,1.18
2019-01-14T22:08:48.649Z,1.15
2019-01-14T22:11:17.297Z,1.15
2019-01-14T22:13:46.036Z,1.09
2019-01-14T22:16:15.038Z,1.05
2019-01-14T22:18:43.629Z,1.12
2019-01-14T22:21:12.238Z,1.16
2019-01-14T22:23:40.999Z,1.14
2019-01-14T22:26:09.600Z,1.29
2019-01-14T22:28:38.224Z,1.25
2019-01-14T22:31:06.998Z,1.22
2019-01-14T22:33:35.709Z,1.28
2019-01-14T22:36:04.320Z,1.23
2019-01-14T22:38:32.986Z,1.15
2019-01-14T22:41:01.498Z,1.11
2019-01-14T22:43:30.150Z,1.07
2019-01-14T22:45:58.775Z,1.17
2019-01-14T22:48:27.391Z,1.20
2019-01-14T22:50:56.071Z,1.30
2019-01-14T22:53:24.562Z,1.33
2019-01-14T22:55:53.065Z,1.31
2019-01-14T22:58:21.594Z,1.35
2019-01-14T23:00:57.259Z,1.24
2019-01-14T23:03:26.051Z,1.30
2019-01-14T23:05:54.602Z,1.27
2019-01-14T23:08:23.139Z,1.30
2019-01-14T23:10:51.757Z,1.24
2019-01-14T23:13:20.246Z,1.37
2019-01-14T23:15:48.677Z,1.43
2019-01-14T23:18:17.643Z,1.31
2019-01-14T23:20:46.487Z,1.36
2019-01-14T23:23:15.031Z,1.33
2019-01-14T23:25:43.765Z,1.42
2019-01-14T23:28:12.393Z,1.46
2019-01-14T23:30:40.969Z,1.46
2019-01-14T23:33:09.665Z,1.49
2019-01-14T23:35:38.284Z,1.54
2019-01-14T23:38:06.835Z,1.52
2019-01-14T23:40:35.443Z,1.67
2019-01-14T23:43:04.060Z,1.70
2019-01-14T23:45:32.679Z,1.59
2019-01-14T23:48:01.499Z,1.71
2019-01-14T23:50:30.052Z,1.78
2019-01-14T23:52:58.585Z,1.71
2019-01-14T23:55:27.200Z,1.68
2019-01-14T23:57:56.267Z,1.76
